Time;durP1;ratioP1;P1;durP2;ratioP2;P2;SDS_P1;SDS_P2;PMS_P1;PMS_P2;Temp;Humidity;BMP_temperature;BMP_pressure;BME280_temperature;BME280_humidity;BME280_pressure;Samples;Min_cycle;Max_cycle;Signal;HPM_P1;HPM_P2
2021/01/22 00:00:06;;;;;;;11.25;4.63;;;6.10;90.80;;;;;;4968491;28;20035;-56
2021/01/22 00:02:32;;;;;;;7.43;4.53;;;6.20;90.80;;;;;;4964157;28;20515;-55
2021/01/22 00:04:57;;;;;;;13.15;4.45;;;6.10;90.80;;;;;;4943502;28;20059;-57
2021/01/22 00:07:23;;;;;;;9.52;4.28;;;6.10;91.00;;;;;;4955248;28;20063;-57
2021/01/22 00:09:48;;;;;;;7.57;3.83;;;6.10;91.00;;;;;;4952439;28;20137;-56
2021/01/22 00:12:14;;;;;;;7.88;4.35;;;6.10;91.10;;;;;;4949288;28;20497;-56
2021/01/22 00:14:39;;;;;;;7.85;4.43;;;6.10;91.00;;;;;;4941064;29;20483;-58
2021/01/22 00:17:05;;;;;;;7.97;4.18;;;6.10;91.00;;;;;;4949891;28;20053;-57
2021/01/22 00:19:30;;;;;;;5.72;3.88;;;6.10;91.00;;;;;;4964741;28;20057;-58
2021/01/22 00:21:56;;;;;;;7.95;4.20;;;6.10;90.90;;;;;;4964907;28;20031;-55
2021/01/22 00:24:21;;;;;;;6.65;4.30;;;6.10;90.90;;;;;;4945196;28;20126;-58
2021/01/22 00:26:47;;;;;;;7.07;3.70;;;6.10;90.90;;;;;;4956312;28;20023;-55
2021/01/22 00:29:12;;;;;;;9.77;4.78;;;6.10;90.90;;;;;;4963785;28;20470;-58
2021/01/22 00:31:38;;;;;;;5.78;4.00;;;6.10;90.90;;;;;;4959954;28;20047;-58
2021/01/22 00:34:03;;;;;;;6.20;4.13;;;6.10;91.00;;;;;;4948225;29;20086;-57
2021/01/22 00:36:29;;;;;;;7.15;4.35;;;6.10;90.90;;;;;;4955052;28;20024;-56
2021/01/22 00:38:55;;;;;;;5.90;3.95;;;6.10;90.90;;;;;;4948696;29;20055;-57
2021/01/22 00:41:20;;;;;;;6.65;4.40;;;6.10;91.00;;;;;;4961753;28;20498;-58
2021/01/22 00:43:46;;;;;;;6.13;3.70;;;6.10;91.00;;;;;;4966189;28;20050;-58
2021/01/22 00:46:11;;;;;;;7.40;3.90;;;6.10;91.30;;;;;;4964538;28;20032;-56
2021/01/22 00:48:37;;;;;;;6.97;3.63;;;6.10;91.40;;;;;;4966268;28;20034;-57
2021/01/22 00:51:02;;;;;;;5.78;3.00;;;6.10;91.60;;;;;;4961177;28;20023;-56
2021/01/22 00:53:28;;;;;;;5.13;3.60;;;6.10;91.80;;;;;;4961607;28;20522;-58
2021/01/22 00:55:53;;;;;;;5.10;3.20;;;6.10;91.80;;;;;;4946651;29;20498;-56
2021/01/22 00:58:19;;;;;;;6.43;3.53;;;6.10;91.90;;;;;;4962951;28;20038;-56
2021/01/22 01:00:44;;;;;;;5.55;3.25;;;6.10;92.00;;;;;;4963724;28;20035;-57
2021/01/22 01:03:10;;;;;;;5.53;3.10;;;6.10;92.20;;;;;;4964067;28;20027;-56
2021/01/22 01:05:35;;;;;;;6.25;3.33;;;6.10;92.30;;;;;;4963098;28;20031;-56
2021/01/22 01:08:01;;;;;;;4.95;3.25;;;6.10;92.40;;;;;;4957524;28;20035;-56
2021/01/22 01:10:26;;;;;;;7.50;3.05;;;6.10;92.40;;;;;;4940129;29;20438;-56
2021/01/22 01:12:52;;;;;;;7.90;3.45;;;6.10;92.40;;;;;;4935178;28;20442;-57
2021/01/22 01:15:17;;;;;;;4.07;2.78;;;6.10;92.40;;;;;;4963538;28;20027;-57
2021/01/22 01:17:43;;;;;;;9.15;3.40;;;6.10;92.40;;;;;;4967260;28;20506;-56
2021/01/22 01:20:10;;;;;;;5.00;2.72;;;6.10;92.60;;;;;;4964251;28;20090;-57
2021/01/22 01:22:36;;;;;;;5.30;3.25;;;6.10;92.50;;;;;;4944569;29;20058;-57
2021/01/22 01:25:03;;;;;;;3.72;2.60;;;6.10;92.40;;;;;;4957074;28;20098;-58
2021/01/22 01:27:28;;;;;;;6.38;3.00;;;6.10;92.50;;;;;;4970088;28;20026;-57
2021/01/22 01:29:54;;;;;;;4.60;2.70;;;6.10;92.40;;;;;;4941460;29;20501;-58
2021/01/22 01:32:19;;;;;;;6.05;2.72;;;6.10;92.40;;;;;;4953261;28;20033;-56
2021/01/22 01:34:45;;;;;;;3.53;2.47;;;6.10;92.30;;;;;;4964564;28;20106;-57
2021/01/22 01:37:10;;;;;;;6.00;2.55;;;6.20;92.40;;;;;;4942004;29;20035;-56
2021/01/22 01:39:36;;;;;;;3.75;2.38;;;6.10;92.40;;;;;;4963128;28;20034;-56
2021/01/22 01:42:01;;;;;;;4.20;2.50;;;6.10;92.40;;;;;;4938408;29;20032;-56
2021/01/22 01:44:27;;;;;;;5.53;3.20;;;6.20;92.40;;;;;;4954796;28;20034;-57
2021/01/22 01:46:52;;;;;;;5.18;2.90;;;6.10;92.40;;;;;;4936806;29;20386;-56
2021/01/22 01:49:18;;;;;;;4.25;2.45;;;6.10;92.30;;;;;;4933236;28;20055;-56
2021/01/22 01:51:43;;;;;;;3.90;2.83;;;6.10;92.20;;;;;;4939159;29;20031;-56
2021/01/22 01:54:09;;;;;;;5.85;2.65;;;6.10;92.20;;;;;;4910622;29;20027;-56
2021/01/22 01:56:34;;;;;;;3.83;2.53;;;6.10;92.10;;;;;;4955130;28;20027;-56
2021/01/22 01:59:00;;;;;;;5.28;2.90;;;6.10;92.20;;;;;;4954050;28;20039;-55
2021/01/22 02:01:26;;;;;;;5.00;2.65;;;6.10;92.20;;;;;;4951965;28;20047;-57
2021/01/22 02:03:52;;;;;;;4.50;2.63;;;6.10;92.20;;;;;;4937397;28;20019;-55
2021/01/22 02:06:17;;;;;;;3.88;2.17;;;6.10;92.20;;;;;;4953509;28;20061;-56
2021/01/22 02:08:43;;;;;;;2.83;1.83;;;6.10;92.20;;;;;;4966570;28;20115;-57
2021/01/22 02:11:08;;;;;;;6.05;2.67;;;6.10;92.20;;;;;;4965516;28;20074;-56
2021/01/22 02:13:34;;;;;;;3.40;2.47;;;6.10;92.20;;;;;;4920619;28;20024;-56
2021/01/22 02:16:00;;;;;;;5.97;2.60;;;6.10;92.10;;;;;;4945773;28;20043;-56
2021/01/22 02:18:26;;;;;;;3.90;2.20;;;6.10;92.10;;;;;;4938587;29;20040;-56
2021/01/22 02:20:58;;;;;;;4.43;2.53;;;6.10;92.10;;;;;;4964297;28;20054;-56
2021/01/22 02:23:24;;;;;;;4.85;2.80;;;6.10;92.10;;;;;;4954675;29;20028;-56
2021/01/22 02:25:50;;;;;;;3.90;2.20;;;6.10;92.10;;;;;;4947398;29;20030;-56
2021/01/22 02:28:15;;;;;;;4.55;2.70;;;6.20;92.10;;;;;;4953027;28;20435;-56
2021/01/22 02:30:44;;;;;;;3.35;2.20;;;6.10;92.10;;;;;;4947670;29;20019;-56
2021/01/22 02:33:11;;;;;;;3.58;2.30;;;6.10;92.10;;;;;;4921492;29;20035;-56
2021/01/22 02:35:36;;;;;;;4.90;2.20;;;6.10;92.10;;;;;;4947391;29;20070;-56
2021/01/22 02:38:02;;;;;;;3.60;2.00;;;6.10;92.10;;;;;;4952653;28;20499;-56
2021/01/22 02:40:27;;;;;;;4.63;2.60;;;6.10;92.10;;;;;;4953175;28;20042;-56
2021/01/22 02:42:53;;;;;;;3.35;2.38;;;6.10;92.10;;;;;;4952196;28;20032;-56
2021/01/22 02:45:18;;;;;;;4.30;2.13;;;6.10;92.10;;;;;;4939966;29;20026;-56
2021/01/22 02:47:48;;;;;;;4.78;2.78;;;6.10;92.10;;;;;;4940393;28;20071;-56
2021/01/22 02:50:33;;;;;;;3.00;2.08;;;6.10;92.00;;;;;;4954959;28;20129;-56
2021/01/22 02:53:05;;;;;;;4.50;2.30;;;6.10;92.00;;;;;;4953961;28;20038;-56
2021/01/22 02:55:32;;;;;;;3.90;2.13;;;6.10;92.00;;;;;;4938594;29;20053;-55
2021/01/22 02:58:02;;;;;;;3.40;2.10;;;6.10;92.00;;;;;;4953023;28;20031;-55
2021/01/22 03:00:33;;;;;;;3.35;2.40;;;6.10;92.00;;;;;;4935642;29;20027;-56
2021/01/22 03:03:25;;;;;;;2.65;1.88;;;6.10;92.00;;;;;;4951180;28;20074;-56
2021/01/22 03:05:51;;;;;;;2.92;1.80;;;6.10;92.00;;;;;;4938146;28;20015;-55
2021/01/22 03:08:18;;;;;;;3.92;2.42;;;6.10;92.00;;;;;;4949663;28;20047;-55
2021/01/22 03:10:44;;;;;;;3.33;2.08;;;6.10;92.00;;;;;;4920387;29;20019;-56
2021/01/22 03:13:10;;;;;;;3.65;2.17;;;6.10;92.00;;;;;;4954119;28;20111;-55
2021/01/22 03:15:36;;;;;;;3.65;2.15;;;6.10;92.00;;;;;;4956484;28;20030;-55
2021/01/22 03:18:15;;;;;;;2.80;2.10;;;6.10;92.00;;;;;;4952730;28;20054;-55
2021/01/22 03:20:44;;;;;;;3.22;2.13;;;6.10;92.00;;;;;;4952511;28;20499;-56
2021/01/22 03:23:10;;;;;;;3.10;1.90;;;6.10;92.00;;;;;;4953778;28;20023;-55
2021/01/22 03:25:35;;;;;;;3.30;2.08;;;6.10;92.00;;;;;;4956646;28;20150;-56
2021/01/22 03:28:01;;;;;;;3.58;2.20;;;6.10;92.00;;;;;;4952658;28;20510;-56
2021/01/22 03:30:27;;;;;;;3.00;2.00;;;6.10;92.00;;;;;;4952695;28;20114;-55
2021/01/22 03:32:53;;;;;;;2.63;1.80;;;6.10;92.00;;;;;;4950607;28;20039;-56
2021/01/22 03:35:18;;;;;;;3.05;2.05;;;6.10;92.20;;;;;;4938578;28;20097;-56
2021/01/22 03:37:44;;;;;;;2.33;1.60;;;6.10;92.20;;;;;;4960079;28;20038;-55
2021/01/22 03:40:10;;;;;;;3.15;2.03;;;6.10;92.20;;;;;;4958069;28;20102;-56
2021/01/22 03:42:35;;;;;;;3.85;1.98;;;6.10;92.20;;;;;;4954851;28;20039;-56
2021/01/22 03:45:01;;;;;;;2.08;1.50;;;6.10;92.20;;;;;;4954909;28;20035;-55
2021/01/22 03:47:26;;;;;;;2.85;2.00;;;6.10;92.20;;;;;;4952016;28;20046;-56
2021/01/22 03:49:53;;;;;;;3.13;2.08;;;6.10;92.10;;;;;;4956968;28;20031;-56
2021/01/22 03:52:18;;;;;;;3.00;1.88;;;6.10;92.10;;;;;;4955344;28;20024;-56
2021/01/22 03:54:44;;;;;;;2.65;1.80;;;6.10;92.10;;;;;;4955713;28;20506;-56
2021/01/22 03:57:09;;;;;;;3.40;1.80;;;6.10;92.10;;;;;;4952199;29;20050;-55
2021/01/22 03:59:35;;;;;;;2.80;1.80;;;6.10;92.10;;;;;;4952717;28;20043;-56
2021/01/22 04:02:00;;;;;;;3.00;1.70;;;6.10;92.10;;;;;;4949548;28;20031;-56
2021/01/22 04:04:26;;;;;;;3.75;1.67;;;6.10;92.20;;;;;;4958159;28;20059;-56
2021/01/22 04:06:51;;;;;;;2.75;1.55;;;6.10;92.20;;;;;;4937547;29;20035;-56
2021/01/22 04:09:17;;;;;;;3.22;1.73;;;6.10;92.20;;;;;;4954752;28;20027;-56
2021/01/22 04:11:42;;;;;;;3.45;1.80;;;6.10;92.40;;;;;;4936379;29;20325;-56
2021/01/22 04:14:08;;;;;;;2.22;1.75;;;6.10;92.10;;;;;;4954910;28;20031;-56
2021/01/22 04:16:33;;;;;;;2.53;1.60;;;6.10;92.10;;;;;;4952535;29;20035;-56
2021/01/22 04:18:59;;;;;;;2.25;1.30;;;6.10;92.10;;;;;;4952117;29;20047;-56
2021/01/22 04:21:25;;;;;;;2.80;1.88;;;6.10;92.10;;;;;;4955101;28;20035;-56
2021/01/22 04:23:50;;;;;;;2.83;1.80;;;6.10;92.10;;;;;;4954490;28;20022;-56
2021/01/22 04:26:16;;;;;;;1.80;1.50;;;6.10;92.10;;;;;;4950088;28;20461;-55
2021/01/22 04:28:41;;;;;;;2.00;1.45;;;6.10;92.10;;;;;;4945474;28;20029;-56
2021/01/22 04:31:07;;;;;;;2.88;1.58;;;6.10;92.20;;;;;;4952305;28;20379;-57
2021/01/22 04:33:32;;;;;;;2.42;1.52;;;6.10;92.20;;;;;;4960779;28;20411;-55
2021/01/22 04:35:58;;;;;;;1.58;1.40;;;6.00;92.20;;;;;;4941489;29;20031;-56
2021/01/22 04:38:24;;;;;;;2.38;1.45;;;6.10;92.20;;;;;;4946128;28;20050;-55
2021/01/22 04:40:50;;;;;;;3.15;1.65;;;6.30;92.20;;;;;;4962115;28;20035;-56
2021/01/22 04:43:16;;;;;;;2.25;1.50;;;6.10;92.20;;;;;;4960141;28;20079;-56
2021/01/22 04:45:41;;;;;;;2.15;1.50;;;6.10;92.20;;;;;;4943138;28;20704;-56
2021/01/22 04:48:07;;;;;;;2.38;1.50;;;6.10;92.20;;;;;;4947812;28;20492;-56
2021/01/22 04:50:33;;;;;;;2.13;1.50;;;6.00;92.20;;;;;;4944606;29;20031;-56
2021/01/22 04:53:01;;;;;;;1.80;1.48;;;6.00;92.20;;;;;;4956427;28;20106;-55
2021/01/22 04:55:28;;;;;;;2.67;1.80;;;6.10;92.20;;;;;;4951901;28;20086;-56
2021/01/22 04:57:54;;;;;;;1.80;1.20;;;6.00;92.20;;;;;;4960455;28;20042;-56
2021/01/22 05:00:20;;;;;;;2.60;1.50;;;6.00;92.20;;;;;;4962530;28;20024;-56
2021/01/22 05:02:45;;;;;;;2.25;1.48;;;6.10;92.20;;;;;;4962733;28;20023;-56
2021/01/22 05:05:11;;;;;;;2.78;1.67;;;6.00;92.20;;;;;;4960503;28;20395;-56
2021/01/22 05:07:37;;;;;;;2.88;1.40;;;6.00;92.20;;;;;;4960282;28;20229;-56
2021/01/22 05:10:03;;;;;;;1.95;1.30;;;6.00;92.20;;;;;;4957349;28;20050;-56
2021/01/22 05:12:35;;;;;;;3.10;1.55;;;6.00;92.20;;;;;;4960037;28;20051;-57
2021/01/22 05:15:20;;;;;;;2.75;1.52;;;6.00;92.20;;;;;;4944482;29;20023;-56
2021/01/22 05:18:02;;;;;;;2.28;1.50;;;6.00;92.20;;;;;;4929946;29;20059;-56
2021/01/22 05:20:35;;;;;;;2.53;1.33;;;6.00;92.20;;;;;;4950572;28;20495;-56
2021/01/22 05:23:02;;;;;;;2.50;1.60;;;6.10;92.20;;;;;;4951449;28;20097;-56
2021/01/22 05:25:28;;;;;;;2.28;1.58;;;6.00;92.20;;;;;;4952003;29;20031;-56
2021/01/22 05:27:55;;;;;;;2.03;1.33;;;6.00;92.20;;;;;;4951033;28;20493;-56
2021/01/22 05:30:24;;;;;;;2.40;1.52;;;6.00;92.30;;;;;;4948504;28;20046;-56
2021/01/22 05:32:50;;;;;;;2.55;1.48;;;6.00;92.30;;;;;;4935079;29;20369;-55
2021/01/22 05:35:31;;;;;;;2.00;1.33;;;6.00;92.30;;;;;;4951142;28;20079;-56
2021/01/22 05:37:57;;;;;;;2.50;1.42;;;6.00;92.30;;;;;;4934423;28;20035;-56
2021/01/22 05:40:23;;;;;;;2.22;1.73;;;6.00;92.40;;;;;;4951620;28;20027;-56
2021/01/22 05:42:56;;;;;;;1.80;1.40;;;6.00;92.40;;;;;;4949330;28;20044;-56
2021/01/22 05:45:37;;;;;;;2.53;1.27;;;6.00;92.40;;;;;;4947131;28;20451;-56
2021/01/22 05:48:04;;;;;;;2.22;1.20;;;6.00;92.40;;;;;;4952411;28;20035;-58
2021/01/22 05:50:51;;;;;;;2.60;1.08;;;6.00;92.40;;;;;;4951500;29;20031;-56
2021/01/22 05:53:18;;;;;;;1.88;1.10;;;6.00;92.50;;;;;;4951133;28;20106;-56
2021/01/22 05:55:44;;;;;;;1.67;1.25;;;6.00;92.60;;;;;;4952278;28;20463;-56
2021/01/22 05:58:09;;;;;;;2.08;1.33;;;6.00;92.50;;;;;;4953731;28;20158;-56
2021/01/22 06:00:35;;;;;;;1.45;1.10;;;6.00;92.50;;;;;;4954262;28;20023;-56
2021/01/22 06:03:01;;;;;;;1.55;1.30;;;6.00;92.50;;;;;;4954841;28;20274;-56
2021/01/22 06:05:26;;;;;;;1.60;1.30;;;6.00;92.40;;;;;;4953836;28;20479;-56
2021/01/22 06:08:07;;;;;;;2.00;1.10;;;6.00;92.40;;;;;;4953728;28;20024;-56
2021/01/22 06:10:42;;;;;;;2.97;1.48;;;6.00;92.40;;;;;;4948647;28;20191;-56
2021/01/22 06:13:08;;;;;;;2.05;1.30;;;6.00;92.40;;;;;;4924455;29;20031;-56
2021/01/22 06:15:34;;;;;;;2.17;1.58;;;6.00;92.30;;;;;;4955022;28;20442;-56
2021/01/22 06:18:00;;;;;;;1.80;1.42;;;6.00;92.30;;;;;;4958844;28;20035;-56
2021/01/22 06:20:25;;;;;;;2.03;1.10;;;6.00;92.30;;;;;;4905838;29;20434;-56
2021/01/22 06:23:12;;;;;;;3.28;1.13;;;6.00;92.30;;;;;;4952860;28;20036;-56
2021/01/22 06:25:38;;;;;;;2.03;1.15;;;6.00;92.30;;;;;;4938175;29;20050;-56
2021/01/22 06:28:04;;;;;;;1.77;1.15;;;6.00;92.30;;;;;;4954114;28;20475;-56
2021/01/22 06:30:34;;;;;;;2.00;1.23;;;6.00;92.30;;;;;;4953960;28;20035;-56
2021/01/22 06:33:00;;;;;;;1.83;1.27;;;6.00;92.30;;;;;;4955041;28;20030;-56
2021/01/22 06:35:27;;;;;;;2.08;1.23;;;6.00;92.30;;;;;;4951688;28;20475;-56
2021/01/22 06:37:53;;;;;;;2.25;1.27;;;6.00;92.30;;;;;;4949710;28;20066;-56
2021/01/22 06:40:18;;;;;;;1.95;1.40;;;6.00;92.30;;;;;;4937537;29;20490;-56
2021/01/22 06:42:44;;;;;;;1.98;1.25;;;6.00;92.30;;;;;;4953917;28;20481;-56
2021/01/22 06:45:10;;;;;;;1.50;1.10;;;6.00;92.30;;;;;;4953697;28;20034;-55
2021/01/22 06:47:35;;;;;;;1.70;1.17;;;6.00;92.40;;;;;;4952457;28;20376;-56
2021/01/22 06:50:01;;;;;;;2.00;1.30;;;6.00;92.30;;;;;;4936056;29;20433;-56
2021/01/22 06:52:26;;;;;;;1.48;1.20;;;6.20;92.40;;;;;;4936966;29;20033;-57
2021/01/22 06:55:01;;;;;;;1.25;1.00;;;6.00;92.30;;;;;;4937461;29;20046;-56
2021/01/22 06:57:27;;;;;;;2.38;1.40;;;6.00;92.30;;;;;;4954248;28;20027;-56
2021/01/22 06:59:52;;;;;;;1.60;1.20;;;6.00;92.30;;;;;;4953109;29;20399;-56
2021/01/22 07:02:34;;;;;;;2.08;1.30;;;6.00;92.30;;;;;;4950243;28;20047;-57
2021/01/22 07:04:59;;;;;;;1.77;1.17;;;6.00;92.30;;;;;;4951455;28;20554;-56
2021/01/22 07:07:47;;;;;;;1.83;1.05;;;6.00;92.30;;;;;;4935526;29;20071;-56
2021/01/22 07:10:12;;;;;;;2.58;1.30;;;6.00;92.30;;;;;;4954914;28;20387;-56
2021/01/22 07:12:42;;;;;;;2.60;1.35;;;6.00;92.30;;;;;;4954043;28;20043;-56
2021/01/22 07:15:19;;;;;;;1.70;1.20;;;6.00;92.30;;;;;;4921011;29;20487;-56
2021/01/22 07:17:48;;;;;;;1.58;1.10;;;6.00;92.30;;;;;;4955716;28;20023;-56
2021/01/22 07:20:13;;;;;;;1.90;1.40;;;6.00;92.30;;;;;;4951951;28;20051;-56
2021/01/22 07:22:54;;;;;;;1.90;1.48;;;6.00;92.30;;;;;;4954261;28;20023;-56
2021/01/22 07:25:30;;;;;;;1.35;1.10;;;6.00;92.30;;;;;;4938115;29;20027;-56
2021/01/22 07:27:56;;;;;;;2.15;1.42;;;6.00;92.30;;;;;;4951284;28;20043;-56
2021/01/22 07:30:23;;;;;;;1.48;1.20;;;6.00;92.30;;;;;;4934075;29;20356;-57
2021/01/22 07:32:50;;;;;;;1.88;1.20;;;6.10;92.30;;;;;;4934366;28;20029;-56
2021/01/22 07:35:25;;;;;;;1.67;1.23;;;6.10;92.30;;;;;;4953057;28;20078;-56
2021/01/22 07:37:51;;;;;;;;;;;6.10;92.40;;;;;;4950224;28;20059;-56
2021/01/22 07:40:16;;;;;;;;;;;6.00;92.30;;;;;;4936235;29;19941;-61
2021/01/22 07:42:42;;;;;;;1.77;1.20;;;6.10;92.30;;;;;;4952250;28;19918;-56
2021/01/22 07:45:16;;;;;;;2.47;1.30;;;6.10;92.30;;;;;;4952979;29;20027;-56
2021/01/22 07:47:42;;;;;;;1.42;1.13;;;6.10;92.30;;;;;;4930455;28;20384;-56
2021/01/22 07:50:12;;;;;;;2.15;1.40;;;6.10;92.30;;;;;;4952590;28;20431;-56
2021/01/22 07:52:42;;;;;;;1.90;1.20;;;6.10;92.30;;;;;;4937074;29;20082;-56
2021/01/22 07:55:18;;;;;;;2.05;1.30;;;6.10;92.30;;;;;;4948133;28;20093;-56
2021/01/22 07:57:43;;;;;;;1.50;1.15;;;6.10;92.30;;;;;;4952183;28;20041;-56
2021/01/22 08:00:11;;;;;;;2.20;1.25;;;6.10;92.30;;;;;;4944937;28;20109;-56
2021/01/22 08:02:36;;;;;;;1.65;1.27;;;6.10;92.30;;;;;;4950586;28;20176;-56
2021/01/22 08:05:08;;;;;;;1.38;1.00;;;6.10;92.30;;;;;;4930194;29;20080;-56
2021/01/22 08:07:38;;;;;;;1.92;1.30;;;6.10;92.30;;;;;;4934463;28;20125;-56
2021/01/22 08:10:08;;;;;;;2.10;1.30;;;6.10;92.30;;;;;;4952204;28;20022;-56
2021/01/22 08:12:34;;;;;;;1.52;0.93;;;6.10;92.40;;;;;;4951856;28;20035;-56
2021/01/22 08:15:13;;;;;;;1.60;1.15;;;6.10;92.50;;;;;;4952478;28;20043;-55
2021/01/22 08:17:38;;;;;;;1.30;1.20;;;6.10;92.50;;;;;;4949259;28;20066;-56
2021/01/22 08:20:07;;;;;;;1.40;1.08;;;6.10;92.50;;;;;;4950044;28;20074;-56
2021/01/22 08:22:33;;;;;;;1.55;1.15;;;6.10;92.40;;;;;;4932909;29;20509;-56
2021/01/22 08:24:58;;;;;;;1.60;1.00;;;6.10;92.40;;;;;;4918401;29;20031;-56
2021/01/22 08:27:24;;;;;;;1.95;1.35;;;6.10;92.40;;;;;;4951855;29;20039;-56
2021/01/22 08:29:49;;;;;;;2.92;1.38;;;6.10;92.40;;;;;;4929994;29;20039;-56
2021/01/22 08:32:16;;;;;;;1.30;0.90;;;6.10;92.40;;;;;;4950564;28;20030;-56
2021/01/22 08:34:41;;;;;;;1.70;1.10;;;6.10;92.40;;;;;;4917402;29;20075;-56
2021/01/22 08:37:08;;;;;;;1.27;0.82;;;6.10;92.40;;;;;;4949896;28;20495;-56
2021/01/22 08:40:09;;;;;;;1.95;1.33;;;6.10;92.40;;;;;;4955217;28;20038;-56
2021/01/22 08:42:36;;;;;;;1.73;0.98;;;6.10;92.40;;;;;;4894557;29;20032;-56
2021/01/22 08:45:04;;;;;;;1.88;1.00;;;6.10;92.40;;;;;;4932591;29;20023;-56
2021/01/22 08:47:31;;;;;;;2.22;1.38;;;6.10;92.40;;;;;;4944253;28;20388;-57
2021/01/22 08:50:01;;;;;;;3.78;1.10;;;6.20;92.40;;;;;;4949222;28;20023;-57
2021/01/22 08:52:27;;;;;;;1.80;1.20;;;6.10;92.40;;;;;;4951514;28;20066;-57
2021/01/22 08:54:55;;;;;;;3.10;1.27;;;6.20;92.40;;;;;;4949410;28;20050;-55
2021/01/22 08:57:22;;;;;;;8.25;2.13;;;6.20;92.50;;;;;;4936617;29;20110;-56
2021/01/22 08:59:48;;;;;;;11.63;1.90;;;6.20;92.50;;;;;;4948520;28;20042;-56
2021/01/22 09:02:14;;;;;;;10.32;2.08;;;6.20;92.40;;;;;;4933881;29;20058;-57
2021/01/22 09:04:40;;;;;;;14.00;3.65;;;6.20;92.40;;;;;;4950717;28;20475;-56
2021/01/22 09:07:16;;;;;;;9.32;2.13;;;6.20;92.40;;;;;;4948724;28;20090;-57
2021/01/22 09:09:46;;;;;;;19.65;2.60;;;6.20;92.50;;;;;;4949101;28;20039;-57
2021/01/22 09:12:16;;;;;;;8.70;2.10;;;6.20;92.40;;;;;;4929525;29;20525;-56
2021/01/22 09:14:45;;;;;;;36.25;4.40;;;6.30;92.50;;;;;;4951659;28;20023;-56
2021/01/22 09:17:22;;;;;;;19.85;2.40;;;6.30;92.50;;;;;;4943148;29;20436;-56
2021/01/22 09:19:58;;;;;;;15.98;2.50;;;6.30;92.50;;;;;;4951520;28;20063;-57
2021/01/22 09:22:24;;;;;;;;;;;6.30;92.40;;;;;;4943934;28;20089;-56
2021/01/22 09:24:49;;;;;;;18.88;2.95;;;6.30;92.40;;;;;;4946785;28;20358;-56
2021/01/22 09:27:15;;;;;;;17.02;2.90;;;6.30;92.40;;;;;;4938556;29;20110;-56
2021/01/22 09:29:40;;;;;;;13.80;2.83;;;6.30;92.40;;;;;;4950594;28;20118;-56
2021/01/22 09:32:09;;;;;;;23.77;3.95;;;6.30;92.40;;;;;;4959579;28;20114;-56
2021/01/22 09:34:34;;;;;;;14.20;3.28;;;6.30;92.40;;;;;;4939565;29;20043;-56
2021/01/22 09:37:00;;;;;;;21.63;3.03;;;6.30;92.40;;;;;;4945819;28;20557;-57
2021/01/22 09:39:26;;;;;;;22.17;3.08;;;6.30;92.40;;;;;;4936319;28;20031;-56
2021/01/22 09:41:52;;;;;;;21.58;4.05;;;6.30;92.30;;;;;;4914000;29;20348;-57
2021/01/22 09:44:18;;;;;;;27.60;3.40;;;6.30;92.30;;;;;;4950564;28;20372;-57
2021/01/22 09:46:44;;;;;;;21.63;3.85;;;6.40;92.40;;;;;;4953007;28;20023;-56
2021/01/22 09:49:10;;;;;;;34.50;3.85;;;6.40;92.40;;;;;;4936125;29;20034;-56
2021/01/22 09:51:35;;;;;;;23.67;3.72;;;6.40;92.40;;;;;;4950013;28;20027;-56
2021/01/22 09:54:00;;;;;;;32.47;4.53;;;6.40;92.40;;;;;;4935798;29;20065;-56
2021/01/22 09:56:26;;;;;;;26.80;4.57;;;6.40;92.50;;;;;;4951489;29;20031;-56
2021/01/22 09:58:52;;;;;;;19.20;4.22;;;6.40;92.50;;;;;;4931032;28;20376;-56
2021/01/22 10:01:17;;;;;;;15.57;3.10;;;6.40;92.50;;;;;;4954041;28;20027;-57
2021/01/22 10:03:43;;;;;;;29.75;4.32;;;6.50;92.50;;;;;;4935126;29;20410;-56
2021/01/22 10:06:12;;;;;;;16.77;3.15;;;6.50;92.40;;;;;;4948842;28;20043;-56
2021/01/22 10:08:38;;;;;;;15.43;2.97;;;6.50;92.40;;;;;;4958052;28;20030;-57
2021/01/22 10:11:03;;;;;;;24.58;3.63;;;6.50;92.40;;;;;;4937563;28;20026;-56
2021/01/22 10:13:29;;;;;;;18.27;3.55;;;6.50;92.30;;;;;;4942428;29;20495;-57
2021/01/22 10:15:55;;;;;;;19.45;2.95;;;6.50;92.30;;;;;;4955916;28;20063;-56
2021/01/22 10:18:20;;;;;;;11.02;3.00;;;6.50;92.30;;;;;;4944868;28;20126;-57
2021/01/22 10:20:48;;;;;;;16.10;3.05;;;6.60;92.30;;;;;;4949831;28;20228;-56
2021/01/22 10:23:14;;;;;;;19.38;3.45;;;6.60;92.30;;;;;;4953773;29;20028;-56
2021/01/22 10:25:40;;;;;;;25.08;3.13;;;6.60;92.20;;;;;;4955100;28;20035;-57
2021/01/22 10:28:05;;;;;;;15.80;3.22;;;6.60;92.20;;;;;;4942790;29;20027;-57
2021/01/22 10:30:31;;;;;;;20.00;2.63;;;6.60;92.10;;;;;;4950762;28;20220;-56
2021/01/22 10:32:56;;;;;;;14.02;3.13;;;6.70;92.10;;;;;;4954399;28;20117;-56
2021/01/22 10:35:22;;;;;;;19.80;3.10;;;6.70;92.10;;;;;;4953533;28;20031;-57
2021/01/22 10:37:47;;;;;;;20.70;3.25;;;6.70;92.10;;;;;;4952814;29;20027;-56
2021/01/22 10:40:13;;;;;;;12.77;2.83;;;6.70;92.00;;;;;;4939437;28;20061;-57
2021/01/22 10:42:38;;;;;;;13.88;2.92;;;6.70;92.00;;;;;;4944045;28;20234;-56
2021/01/22 10:45:05;;;;;;;11.45;3.78;;;6.80;92.00;;;;;;4947639;28;20459;-56
2021/01/22 10:47:31;;;;;;;20.08;4.22;;;6.80;92.00;;;;;;4945256;28;20447;-56
2021/01/22 10:49:56;;;;;;;10.45;2.75;;;6.80;92.00;;;;;;4952466;28;20031;-56
2021/01/22 10:52:22;;;;;;;12.55;2.80;;;6.80;92.00;;;;;;4950574;28;20034;-56
2021/01/22 10:54:47;;;;;;;17.25;3.22;;;6.80;91.90;;;;;;4951022;28;20430;-56
2021/01/22 10:57:13;;;;;;;25.23;3.33;;;6.80;91.90;;;;;;4946081;28;20042;-57
2021/01/22 10:59:39;;;;;;;17.33;2.90;;;6.80;91.90;;;;;;4948931;28;20619;-56
2021/01/22 11:02:08;;;;;;;12.70;2.67;;;6.90;92.00;;;;;;4958266;28;20019;-57
2021/01/22 11:04:34;;;;;;;15.98;2.55;;;6.90;91.90;;;;;;4956999;28;20090;-56
2021/01/22 11:07:00;;;;;;;16.63;2.45;;;6.90;91.90;;;;;;4929658;29;20110;-57
2021/01/22 11:09:25;;;;;;;17.52;3.28;;;7.10;91.90;;;;;;4951009;28;20276;-57
2021/01/22 11:11:51;;;;;;;23.35;3.25;;;7.00;91.80;;;;;;4939281;28;20480;-57
2021/01/22 11:14:16;;;;;;;16.63;3.28;;;6.90;91.80;;;;;;4929285;28;20040;-58
2021/01/22 11:16:42;;;;;;;19.20;3.70;;;7.00;91.80;;;;;;4913247;29;20123;-57
2021/01/22 11:19:07;;;;;;;16.90;3.05;;;7.00;91.70;;;;;;4908870;29;20055;-58
2021/01/22 11:21:33;;;;;;;16.10;3.20;;;7.00;91.70;;;;;;4914872;29;20456;-58
2021/01/22 11:24:00;;;;;;;18.85;2.85;;;7.00;91.70;;;;;;4930008;29;20051;-58
2021/01/22 11:26:26;;;;;;;17.17;3.50;;;7.10;91.70;;;;;;4948523;28;20428;-58
2021/01/22 11:28:52;;;;;;;17.70;3.42;;;7.10;91.70;;;;;;4933080;29;20036;-58
2021/01/22 11:31:17;;;;;;;16.85;3.03;;;7.10;91.70;;;;;;4932121;29;20027;-57
2021/01/22 11:33:44;;;;;;;13.13;2.67;;;7.10;91.60;;;;;;4931989;29;20035;-58
2021/01/22 11:36:10;;;;;;;12.52;3.22;;;7.10;91.60;;;;;;4935140;29;20020;-59
2021/01/22 11:38:35;;;;;;;23.00;3.65;;;7.10;91.60;;;;;;4930583;29;20051;-57
2021/01/22 11:41:01;;;;;;;18.60;2.95;;;7.20;91.60;;;;;;4949776;28;20039;-59
2021/01/22 11:43:26;;;;;;;16.63;3.50;;;7.10;91.60;;;;;;4932835;29;20058;-59
2021/01/22 11:45:52;;;;;;;18.80;3.25;;;7.20;91.60;;;;;;4933220;29;20499;-57
2021/01/22 11:48:17;;;;;;;15.45;3.30;;;7.20;91.50;;;;;;4941027;29;20028;-58
2021/01/22 11:50:43;;;;;;;12.45;3.28;;;7.20;91.50;;;;;;4923085;29;20130;-57
2021/01/22 11:53:08;;;;;;;21.00;3.25;;;7.30;91.60;;;;;;4908128;29;20456;-58
2021/01/22 11:55:36;;;;;;;13.70;3.38;;;7.30;91.60;;;;;;4945748;29;20034;-58
2021/01/22 11:58:01;;;;;;;13.90;3.33;;;7.30;91.50;;;;;;4943496;28;20024;-58
2021/01/22 12:00:27;;;;;;;14.00;3.30;;;7.30;91.50;;;;;;4940837;29;20491;-58
2021/01/22 12:02:53;;;;;;;22.40;3.38;;;7.30;91.40;;;;;;4943898;29;20036;-58
2021/01/22 12:05:18;;;;;;;16.58;4.38;;;7.30;91.40;;;;;;4925920;29;20028;-59
2021/01/22 12:07:44;;;;;;;26.27;4.55;;;7.40;91.40;;;;;;4929767;29;20484;-57
2021/01/22 12:10:10;;;;;;;18.50;3.85;;;7.40;91.40;;;;;;4932051;29;20036;-57
2021/01/22 12:12:35;;;;;;;15.55;3.45;;;7.40;91.30;;;;;;4928519;29;20451;-57
2021/01/22 12:15:01;;;;;;;28.08;4.13;;;7.40;91.30;;;;;;4930385;29;20063;-58
2021/01/22 12:17:26;;;;;;;11.10;3.90;;;7.50;91.30;;;;;;4933222;29;20086;-58
2021/01/22 12:19:52;;;;;;;18.55;3.40;;;7.40;91.30;;;;;;4941275;28;20106;-59
2021/01/22 12:22:17;;;;;;;8.13;2.92;;;7.50;91.40;;;;;;4944797;28;20036;-58
2021/01/22 12:24:43;;;;;;;23.10;3.50;;;7.50;91.30;;;;;;4934754;29;20040;-58
2021/01/22 12:27:08;;;;;;;18.00;3.75;;;7.50;91.30;;;;;;4930209;29;20032;-58
2021/01/22 12:29:34;;;;;;;15.35;3.22;;;7.50;91.30;;;;;;4942815;28;20039;-59
2021/01/22 12:31:59;;;;;;;27.92;3.97;;;7.50;91.30;;;;;;4929061;28;20532;-58
2021/01/22 12:34:25;;;;;;;11.13;3.42;;;7.50;91.30;;;;;;4930674;29;20506;-57
2021/01/22 12:36:50;;;;;;;13.85;4.05;;;7.50;91.20;;;;;;4930350;29;20036;-58
2021/01/22 12:39:16;;;;;;;9.80;3.03;;;7.50;91.20;;;;;;4945807;28;20480;-58
2021/01/22 12:41:42;;;;;;;16.75;3.97;;;7.50;91.20;;;;;;4945804;28;20102;-58
2021/01/22 12:44:07;;;;;;;14.13;3.42;;;7.60;91.20;;;;;;4933885;29;20036;-58
2021/01/22 12:46:33;;;;;;;10.10;3.03;;;7.60;91.20;;;;;;4929107;29;20027;-57
2021/01/22 12:48:58;;;;;;;17.00;3.13;;;7.60;91.20;;;;;;4944615;28;20040;-57
2021/01/22 12:51:25;;;;;;;15.70;3.97;;;7.60;91.20;;;;;;4922366;29;20027;-57
2021/01/22 12:53:50;;;;;;;18.05;3.53;;;7.60;91.20;;;;;;4944321;28;20090;-58